createdAt,value
2018-02-10T00:00:25.903Z,21.19
2018-02-10T00:01:26.194Z,21.16
2018-02-10T00:02:25.884Z,21.16
2018-02-10T00:03:25.886Z,21.13
2018-02-10T00:04:26.079Z,21.16
2018-02-10T00:05:25.876Z,21.13
2018-02-10T00:06:26.121Z,21.06
2018-02-10T00:07:25.855Z,21.13
2018-02-10T00:08:25.852Z,21.16
2018-02-10T00:09:25.845Z,21.19
2018-02-10T00:10:25.842Z,21.14
2018-02-10T00:11:26.085Z,21.13
2018-02-10T00:12:25.827Z,21.13
2018-02-10T00:13:25.820Z,21.14
2018-02-10T00:14:25.817Z,21.16
2018-02-10T00:15:25.845Z,21.16
2018-02-10T00:16:26.064Z,21.14
2018-02-10T00:17:25.904Z,21.13
2018-02-10T00:18:25.789Z,21.17
2018-02-10T00:19:25.823Z,21.14
2018-02-10T00:20:25.776Z,21.10
2018-02-10T00:21:26.075Z,21.14
2018-02-10T00:22:25.771Z,21.13
2018-02-10T00:23:25.761Z,21.10
2018-02-10T00:24:25.752Z,21.24
2018-02-10T00:25:25.754Z,21.14
2018-02-10T00:26:26.050Z,21.19
2018-02-10T00:27:25.789Z,21.14
2018-02-10T00:28:25.731Z,21.17
2018-02-10T00:29:25.725Z,21.10
2018-02-10T00:30:25.721Z,21.28
2018-02-10T00:31:25.965Z,21.14
2018-02-10T00:32:25.707Z,21.16
2018-02-10T00:33:25.701Z,21.12
2018-02-10T00:34:25.700Z,21.12
2018-02-10T00:35:25.691Z,21.16
2018-02-10T00:36:25.686Z,21.13
2018-02-10T00:37:25.678Z,21.10
2018-02-10T00:38:25.674Z,21.16
2018-02-10T00:39:25.667Z,21.13
2018-02-10T00:40:25.660Z,21.12
2018-02-10T00:41:25.903Z,21.13
2018-02-10T00:42:26.000Z,21.19
2018-02-10T00:43:25.809Z,21.12
2018-02-10T00:44:25.638Z,21.21
2018-02-10T00:45:25.629Z,21.12
2018-02-10T00:46:25.679Z,21.21
2018-02-10T00:47:25.629Z,21.12
2018-02-10T00:48:25.620Z,21.13
2018-02-10T00:49:25.609Z,21.13
2018-02-10T00:50:25.610Z,21.14
2018-02-10T00:51:25.594Z,21.14
2018-02-10T00:52:25.612Z,21.13
2018-02-10T00:53:25.590Z,21.17
2018-02-10T00:54:25.577Z,21.13
2018-02-10T00:55:25.569Z,21.22
2018-02-10T00:56:25.651Z,21.14
2018-02-10T00:57:25.557Z,21.19
2018-02-10T00:58:25.562Z,21.13
2018-02-10T00:59:25.546Z,21.13
2018-02-10T01:00:25.569Z,21.27
2018-02-10T01:01:25.536Z,21.16
2018-02-10T01:02:25.626Z,21.14
2018-02-10T01:03:25.523Z,21.16
2018-02-10T01:04:25.516Z,21.07
2018-02-10T01:05:25.508Z,21.13
2018-02-10T01:06:25.553Z,21.13
2018-02-10T01:07:25.498Z,21.12
2018-02-10T01:08:25.690Z,21.13
2018-02-10T01:09:25.597Z,21.12
2018-02-10T01:10:25.732Z,21.12
2018-02-10T01:11:25.474Z,21.06
2018-02-10T01:12:25.719Z,21.09
2018-02-10T01:13:25.460Z,21.13
2018-02-10T01:14:25.453Z,21.16
2018-02-10T01:15:25.446Z,21.16
2018-02-10T01:16:25.446Z,21.10
2018-02-10T01:17:25.438Z,21.16
2018-02-10T01:18:25.430Z,21.14
2018-02-10T01:19:25.427Z,21.09
2018-02-10T01:20:25.415Z,21.16
2018-02-10T01:21:25.414Z,21.16
2018-02-10T01:22:25.454Z,21.21
2018-02-10T01:23:25.402Z,21.09
2018-02-10T01:24:25.396Z,21.14
2018-02-10T01:25:25.390Z,21.16
2018-02-10T01:26:25.386Z,21.03
2018-02-10T01:27:25.378Z,21.12
2018-02-10T01:28:25.623Z,21.12
2018-02-10T01:29:25.372Z,21.12
2018-02-10T01:30:25.356Z,21.09
2018-02-10T01:31:25.389Z,21.21
2018-02-10T01:32:25.344Z,21.16
2018-02-10T01:33:25.598Z,21.21
2018-02-10T01:34:25.335Z,21.16
2018-02-10T01:35:25.352Z,21.10
2018-02-10T01:36:25.370Z,21.14
2018-02-10T01:37:25.326Z,21.17
2018-02-10T01:38:25.562Z,21.13
2018-02-10T01:39:25.315Z,21.16
2018-02-10T01:40:25.298Z,21.14
2018-02-10T01:41:25.292Z,21.12
2018-02-10T01:42:25.285Z,21.06
2018-02-10T01:43:25.527Z,21.13
2018-02-10T01:44:25.274Z,21.10
2018-02-10T01:45:25.266Z,21.14
2018-02-10T01:46:25.259Z,21.07
2018-02-10T01:47:25.253Z,21.10
2018-02-10T01:48:25.498Z,21.03
2018-02-10T01:49:25.240Z,21.12
2018-02-10T01:50:25.236Z,21.21
2018-02-10T01:51:25.231Z,21.19
2018-02-10T01:52:25.226Z,21.16
2018-02-10T01:53:25.467Z,21.13
2018-02-10T01:54:25.211Z,21.16
2018-02-10T01:55:25.201Z,21.12
2018-02-10T01:56:25.198Z,21.10
2018-02-10T01:57:25.191Z,21.19
2018-02-10T01:58:25.502Z,21.04
2018-02-10T01:59:25.176Z,21.13
2018-02-10T02:00:25.174Z,21.13
2018-02-10T02:01:25.164Z,21.09
2018-02-10T02:02:25.162Z,21.03
2018-02-10T02:03:25.406Z,21.13
2018-02-10T02:04:25.149Z,21.17
2018-02-10T02:05:25.146Z,21.10
2018-02-10T02:06:25.135Z,21.14
2018-02-10T02:07:25.135Z,21.07
2018-02-10T02:08:25.422Z,21.13
2018-02-10T02:09:25.118Z,21.04
2018-02-10T02:10:25.114Z,21.19
2018-02-10T02:11:25.108Z,21.14
2018-02-10T02:12:25.098Z,21.12
2018-02-10T02:13:25.346Z,21.14
2018-02-10T02:14:25.088Z,21.04
2018-02-10T02:15:25.085Z,21.12
2018-02-10T02:16:25.077Z,21.16
2018-02-10T02:17:25.072Z,21.10
2018-02-10T02:18:25.314Z,21.06
2018-02-10T02:19:25.056Z,21.01
2018-02-10T02:20:25.052Z,21.19
2018-02-10T02:21:25.044Z,21.12
2018-02-10T02:22:25.036Z,21.12
2018-02-10T02:23:25.284Z,21.12
2018-02-10T02:24:25.026Z,21.12
2018-02-10T02:25:25.019Z,21.17
2018-02-10T02:26:25.016Z,21.01
2018-02-10T02:27:25.006Z,21.03
2018-02-10T02:28:25.250Z,21.16
2018-02-10T02:29:24.994Z,21.13
2018-02-10T02:30:24.985Z,21.10
2018-02-10T02:31:24.982Z,20.99
2018-02-10T02:32:24.977Z,21.06
2018-02-10T02:33:25.234Z,21.17
2018-02-10T02:34:24.964Z,21.10
2018-02-10T02:35:24.958Z,21.12
2018-02-10T02:36:24.953Z,21.10
2018-02-10T02:37:24.952Z,21.09
2018-02-10T02:38:25.191Z,21.10
2018-02-10T02:39:24.936Z,21.09
2018-02-10T02:40:24.926Z,21.06
2018-02-10T02:41:24.924Z,21.10
2018-02-10T02:42:25.063Z,21.04
2018-02-10T02:43:25.408Z,21.14
2018-02-10T02:44:24.902Z,21.12
2018-02-10T02:45:24.897Z,21.10
2018-02-10T02:46:24.896Z,21.10
2018-02-10T02:47:24.882Z,20.99
2018-02-10T02:48:25.130Z,21.04
2018-02-10T02:49:24.878Z,21.14
2018-02-10T02:50:24.862Z,20.99
2018-02-10T02:51:24.857Z,21.01
2018-02-10T02:52:24.850Z,21.17
2018-02-10T02:53:25.094Z,21.04
2018-02-10T02:54:24.844Z,21.06
2018-02-10T02:55:24.848Z,21.04
2018-02-10T02:56:24.826Z,21.10
2018-02-10T02:57:24.833Z,21.12
2018-02-10T02:58:25.080Z,21.06
2018-02-10T02:59:24.808Z,21.10
2018-02-10T03:00:24.803Z,21.14
2018-02-10T03:01:24.801Z,21.09
2018-02-10T03:02:24.794Z,21.07
2018-02-10T03:03:25.033Z,21.07
2018-02-10T03:04:25.027Z,21.16
2018-02-10T03:05:24.769Z,21.09
2018-02-10T03:06:24.764Z,21.10
2018-02-10T03:07:24.762Z,21.09
2018-02-10T03:08:25.013Z,21.13
2018-02-10T03:09:24.744Z,21.10
2018-02-10T03:10:24.738Z,21.03
2018-02-10T03:11:24.734Z,21.03
2018-02-10T03:12:24.726Z,21.09
2018-02-10T03:13:24.971Z,21.10
2018-02-10T03:14:24.770Z,21.06
2018-02-10T03:15:24.705Z,21.03
2018-02-10T03:16:24.700Z,21.01
2018-02-10T03:17:24.695Z,21.09
2018-02-10T03:18:24.941Z,21.10
2018-02-10T03:19:24.685Z,21.07
2018-02-10T03:20:24.676Z,21.12
2018-02-10T03:21:24.669Z,21.14
2018-02-10T03:22:24.664Z,21.12
2018-02-10T03:23:24.680Z,21.14
2018-02-10T03:24:24.904Z,21.07
2018-02-10T03:25:24.647Z,21.06
2018-02-10T03:26:24.789Z,21.09
2018-02-10T03:27:24.987Z,21.04
2018-02-10T03:28:24.632Z,20.98
2018-02-10T03:29:24.625Z,21.12
2018-02-10T03:30:24.618Z,21.10
2018-02-10T03:31:24.617Z,21.12
2018-02-10T03:32:24.599Z,21.10
2018-02-10T03:33:24.604Z,21.07
2018-02-10T03:34:24.592Z,21.09
2018-02-10T03:35:24.834Z,21.09
2018-02-10T03:36:24.583Z,21.09
2018-02-10T03:37:24.574Z,21.06
2018-02-10T03:38:24.565Z,21.07
2018-02-10T03:39:24.563Z,21.12
2018-02-10T03:40:24.552Z,21.06
2018-02-10T03:41:24.545Z,21.14
2018-02-10T03:42:24.544Z,21.12
2018-02-10T03:43:24.531Z,21.16
2018-02-10T03:44:24.525Z,21.12
2018-02-10T03:45:24.523Z,21.06
2018-02-10T03:46:24.513Z,21.04
2018-02-10T03:47:24.507Z,21.16
2018-02-10T03:48:24.497Z,21.12
2018-02-10T03:49:24.499Z,21.14
2018-02-10T03:50:24.490Z,20.99
2018-02-10T03:51:24.736Z,21.07
2018-02-10T03:52:24.475Z,21.06
2018-02-10T03:53:24.476Z,20.98
2018-02-10T03:54:24.464Z,21.12
2018-02-10T03:55:24.459Z,21.09
2018-02-10T03:56:24.455Z,21.12
2018-02-10T03:57:24.443Z,21.09
2018-02-10T03:58:24.441Z,20.98
2018-02-10T03:59:24.435Z,21.03
2018-02-10T04:00:24.426Z,21.09
2018-02-10T04:01:24.422Z,21.01
2018-02-10T04:02:24.663Z,21.07
2018-02-10T04:03:24.414Z,21.09
2018-02-10T04:04:24.404Z,21.04
2018-02-10T04:05:24.395Z,21.04
2018-02-10T04:06:24.390Z,21.10
2018-02-10T04:07:24.383Z,21.04
2018-02-10T04:08:24.374Z,21.10
2018-02-10T04:09:24.373Z,20.98
2018-02-10T04:10:24.364Z,20.99
2018-02-10T04:11:24.366Z,21.10
2018-02-10T04:12:24.351Z,21.04
2018-02-10T04:13:24.595Z,21.12
2018-02-10T04:14:24.345Z,20.99
2018-02-10T04:15:24.333Z,20.98
2018-02-10T04:16:24.327Z,20.98
2018-02-10T04:17:24.321Z,21.06
2018-02-10T04:18:24.567Z,21.07
2018-02-10T04:19:24.309Z,20.98
2018-02-10T04:20:24.502Z,20.98
2018-02-10T04:21:24.344Z,20.98
2018-02-10T04:22:24.289Z,21.04
2018-02-10T04:23:24.536Z,21.04
2018-02-10T04:24:24.276Z,21.01
2018-02-10T04:25:24.425Z,20.98
2018-02-10T04:26:24.280Z,20.99
2018-02-10T04:27:24.306Z,20.98
2018-02-10T04:28:24.505Z,20.98
2018-02-10T04:29:24.300Z,20.98
2018-02-10T04:30:24.241Z,20.95
2018-02-10T04:31:24.236Z,21.03
2018-02-10T04:32:24.226Z,21.10
2018-02-10T04:33:24.476Z,20.97
2018-02-10T04:34:24.214Z,20.98
2018-02-10T04:35:24.212Z,21.01
2018-02-10T04:36:24.205Z,21.01
2018-02-10T04:37:24.196Z,20.99
2018-02-10T04:38:24.444Z,20.98
2018-02-10T04:39:24.183Z,20.98
2018-02-10T04:40:24.176Z,21.03
2018-02-10T04:41:24.173Z,21.09
2018-02-10T04:42:24.164Z,20.98
2018-02-10T04:43:24.415Z,20.98
2018-02-10T04:44:24.150Z,21.03
2018-02-10T04:45:24.144Z,21.04
2018-02-10T04:46:24.137Z,20.95
2018-02-10T04:47:24.134Z,20.98
2018-02-10T04:48:24.377Z,21.01
2018-02-10T04:49:24.118Z,20.98
2018-02-10T04:50:24.116Z,21.04
2018-02-10T04:51:24.107Z,21.01
2018-02-10T04:52:24.098Z,20.98
2018-02-10T04:53:24.342Z,21.01
2018-02-10T04:54:24.087Z,21.03
2018-02-10T04:55:24.081Z,21.01
2018-02-10T04:56:24.107Z,21.04
2018-02-10T04:57:24.087Z,21.01
2018-02-10T04:58:24.312Z,21.03
2018-02-10T04:59:24.054Z,21.03
2018-02-10T05:00:24.055Z,21.01
2018-02-10T05:01:24.042Z,20.97
2018-02-10T05:02:24.037Z,20.99
2018-02-10T05:03:24.287Z,20.99
2018-02-10T05:04:24.028Z,20.98
2018-02-10T05:05:24.024Z,21.01
2018-02-10T05:06:24.017Z,20.99
2018-02-10T05:07:24.019Z,20.99
2018-02-10T05:08:24.245Z,21.01
2018-02-10T05:09:23.995Z,21.09
2018-02-10T05:10:24.035Z,21.04
2018-02-10T05:11:23.978Z,21.03
2018-02-10T05:12:23.974Z,21.04
2018-02-10T05:13:24.216Z,20.98
2018-02-10T05:14:23.964Z,21.01
2018-02-10T05:15:23.965Z,21.04
2018-02-10T05:16:23.997Z,20.92
2018-02-10T05:17:23.941Z,21.04
2018-02-10T05:18:24.239Z,21.09
2018-02-10T05:19:23.933Z,21.10
2018-02-10T05:20:23.923Z,21.09
2018-02-10T05:21:23.917Z,21.06
2018-02-10T05:22:23.911Z,20.98
2018-02-10T05:23:24.156Z,21.04
2018-02-10T05:24:23.896Z,21.06
2018-02-10T05:25:23.898Z,20.95
2018-02-10T05:26:23.884Z,21.07
2018-02-10T05:27:23.877Z,21.04
2018-02-10T05:28:24.125Z,20.97
2018-02-10T05:29:23.869Z,21.03
2018-02-10T05:30:23.866Z,21.07
2018-02-10T05:31:23.853Z,21.04
2018-02-10T05:32:23.847Z,21.06
2018-02-10T05:33:24.111Z,21.04
2018-02-10T05:34:23.833Z,21.01
2018-02-10T05:35:23.834Z,20.98
2018-02-10T05:36:23.823Z,21.10
2018-02-10T05:37:23.827Z,20.99
2018-02-10T05:38:24.113Z,21.04
2018-02-10T05:39:23.807Z,21.03
2018-02-10T05:40:23.796Z,21.06
2018-02-10T05:41:23.832Z,21.04
2018-02-10T05:42:23.784Z,20.94
2018-02-10T05:43:24.392Z,21.04
2018-02-10T05:44:23.772Z,20.95
2018-02-10T05:45:23.916Z,20.98
2018-02-10T05:46:23.758Z,21.01
2018-02-10T05:47:23.802Z,20.99
2018-02-10T05:48:23.996Z,20.99
2018-02-10T05:49:23.788Z,20.97
2018-02-10T05:50:23.734Z,20.98
2018-02-10T05:51:23.781Z,20.95
2018-02-10T05:52:23.723Z,21.01
2018-02-10T05:53:24.218Z,21.01
2018-02-10T05:54:23.710Z,20.98
2018-02-10T05:55:23.700Z,20.98
2018-02-10T05:56:23.694Z,21.01
2018-02-10T05:57:23.689Z,20.99
2018-02-10T05:58:23.937Z,20.98
2018-02-10T05:59:23.676Z,20.99
2018-02-10T06:00:23.670Z,21.04
2018-02-10T06:01:23.665Z,20.98
2018-02-10T06:02:23.656Z,21.01
2018-02-10T06:03:23.649Z,21.09
2018-02-10T06:04:23.650Z,20.97
2018-02-10T06:05:23.640Z,21.01
2018-02-10T06:06:23.638Z,21.06
2018-02-10T06:07:23.628Z,20.99
2018-02-10T06:08:23.619Z,20.99
2018-02-10T06:09:23.866Z,20.99
2018-02-10T06:10:23.606Z,21.04
2018-02-10T06:11:23.606Z,20.98
2018-02-10T06:12:23.592Z,21.09
2018-02-10T06:13:23.585Z,21.01
2018-02-10T06:14:23.583Z,20.95
2018-02-10T06:15:23.827Z,20.99
2018-02-10T06:16:23.571Z,21.06
2018-02-10T06:17:23.566Z,21.04
2018-02-10T06:18:23.570Z,20.99
2018-02-10T06:19:23.554Z,20.95
2018-02-10T06:20:24.043Z,20.97
2018-02-10T06:21:23.537Z,20.98
2018-02-10T06:22:23.529Z,20.98
2018-02-10T06:23:23.526Z,20.99
2018-02-10T06:24:23.517Z,21.03
2018-02-10T06:25:23.515Z,20.92
2018-02-10T06:26:23.657Z,21.03
2018-02-10T06:27:23.499Z,20.95
2018-02-10T06:28:23.592Z,21.01
2018-02-10T06:29:23.490Z,20.99
2018-02-10T06:30:23.538Z,20.99
2018-02-10T06:31:23.724Z,20.97
2018-02-10T06:32:23.466Z,20.98
2018-02-10T06:33:23.462Z,20.99
2018-02-10T06:34:23.506Z,20.97
2018-02-10T06:35:23.453Z,21.03
2018-02-10T06:36:23.447Z,21.04
2018-02-10T06:37:23.685Z,21.06
2018-02-10T06:38:23.435Z,20.98
2018-02-10T06:39:23.427Z,21.01
2018-02-10T06:40:23.473Z,21.03
2018-02-10T06:41:23.413Z,21.03
2018-02-10T06:42:23.406Z,20.98
2018-02-10T06:43:23.398Z,21.01
2018-02-10T06:44:23.396Z,20.99
2018-02-10T06:45:23.386Z,21.01
2018-02-10T06:46:23.382Z,21.01
2018-02-10T06:47:23.373Z,21.06
2018-02-10T06:48:23.618Z,20.99
2018-02-10T06:49:23.367Z,20.99
2018-02-10T06:50:23.357Z,20.99
2018-02-10T06:51:23.355Z,20.99
2018-02-10T06:52:23.353Z,20.99
2018-02-10T06:53:23.637Z,20.99
2018-02-10T06:54:23.331Z,21.01
2018-02-10T06:55:23.324Z,20.97
2018-02-10T06:56:23.315Z,21.01
2018-02-10T06:57:23.311Z,21.03
2018-02-10T06:58:23.555Z,20.98
2018-02-10T06:59:23.313Z,21.04
2018-02-10T07:00:23.295Z,21.03
2018-02-10T07:01:23.290Z,21.03
2018-02-10T07:02:23.281Z,20.98
2018-02-10T07:03:23.534Z,21.06
2018-02-10T07:04:23.272Z,20.97
2018-02-10T07:05:23.281Z,20.94
2018-02-10T07:06:23.257Z,20.95
2018-02-10T07:07:23.252Z,20.98
2018-02-10T07:08:23.491Z,20.94
2018-02-10T07:09:23.237Z,21.03
2018-02-10T07:10:23.244Z,20.94
2018-02-10T07:11:23.228Z,21.03
2018-02-10T07:12:23.228Z,21.01
2018-02-10T07:13:23.463Z,21.01
2018-02-10T07:14:23.206Z,20.97
2018-02-10T07:15:23.203Z,21.01
2018-02-10T07:16:23.196Z,21.09
2018-02-10T07:17:23.202Z,20.98
2018-02-10T07:18:23.437Z,21.03
2018-02-10T07:19:23.182Z,20.99
2018-02-10T07:20:23.175Z,20.99
2018-02-10T07:21:23.164Z,20.97
2018-02-10T07:22:23.158Z,21.01
2018-02-10T07:23:23.397Z,20.97
2018-02-10T07:24:23.144Z,21.03
2018-02-10T07:25:23.138Z,21.01
2018-02-10T07:26:23.136Z,21.03
2018-02-10T07:27:23.126Z,20.94
2018-02-10T07:28:23.378Z,20.98
2018-02-10T07:29:23.113Z,21.09
2018-02-10T07:30:23.106Z,21.04
2018-02-10T07:31:23.104Z,20.99
2018-02-10T07:32:23.093Z,21.13
2018-02-10T07:33:23.336Z,21.01
2018-02-10T07:34:23.087Z,21.03
2018-02-10T07:35:23.109Z,21.10
2018-02-10T07:36:23.074Z,21.06
2018-02-10T07:37:23.068Z,21.16
2018-02-10T07:38:23.310Z,21.03
2018-02-10T07:39:23.051Z,21.07
2018-02-10T07:40:23.049Z,21.10
2018-02-10T07:41:23.049Z,21.13
2018-02-10T07:42:23.037Z,21.10
2018-02-10T07:43:23.285Z,21.14
2018-02-10T07:44:23.017Z,21.09
2018-02-10T07:45:23.017Z,21.07
2018-02-10T07:46:23.056Z,21.16
2018-02-10T07:47:23.001Z,21.13
2018-02-10T07:48:23.248Z,21.13
2018-02-10T07:49:22.989Z,21.12
2018-02-10T07:50:22.987Z,21.01
2018-02-10T07:51:22.982Z,21.19
2018-02-10T07:52:22.971Z,21.04
2018-02-10T07:53:23.215Z,21.07
2018-02-10T07:54:22.957Z,21.06
2018-02-10T07:55:22.956Z,21.16
2018-02-10T07:56:22.946Z,21.13
2018-02-10T07:57:22.941Z,21.06
2018-02-10T07:58:23.184Z,21.09
2018-02-10T07:59:22.933Z,21.06
2018-02-10T08:00:22.927Z,20.98
2018-02-10T08:01:22.924Z,21.01
2018-02-10T08:02:22.909Z,21.09
2018-02-10T08:03:23.155Z,21.10
2018-02-10T08:04:22.896Z,21.12
2018-02-10T08:05:22.893Z,21.06
2018-02-10T08:06:22.885Z,21.06
2018-02-10T08:07:22.878Z,21.14
2018-02-10T08:08:23.124Z,21.03
2018-02-10T08:09:22.874Z,20.98
2018-02-10T08:10:22.866Z,21.07
2018-02-10T08:11:22.856Z,20.99
2018-02-10T08:12:22.855Z,21.01
2018-02-10T08:13:23.097Z,21.04
2018-02-10T08:14:22.837Z,21.04
2018-02-10T08:15:22.832Z,20.99
2018-02-10T08:16:22.822Z,21.01
2018-02-10T08:17:22.859Z,20.98
2018-02-10T08:18:23.063Z,21.06
2018-02-10T08:19:22.806Z,21.04
2018-02-10T08:20:22.811Z,20.98
2018-02-10T08:21:22.799Z,20.99
2018-02-10T08:22:22.792Z,21.01
2018-02-10T08:23:23.037Z,20.99
2018-02-10T08:24:22.774Z,20.99
2018-02-10T08:25:22.771Z,21.03
2018-02-10T08:26:22.766Z,21.07
2018-02-10T08:27:22.762Z,21.04
2018-02-10T08:28:23.002Z,20.95
2018-02-10T08:29:22.744Z,21.03
2018-02-10T08:30:22.791Z,21.03
2018-02-10T08:31:22.876Z,21.01
2018-02-10T08:32:22.925Z,21.06
2018-02-10T08:33:23.085Z,21.04
2018-02-10T08:34:22.715Z,21.14
2018-02-10T08:35:22.709Z,21.10
2018-02-10T08:36:22.702Z,20.99
2018-02-10T08:37:22.695Z,20.99
2018-02-10T08:38:22.941Z,20.99
2018-02-10T08:39:22.683Z,21.10
2018-02-10T08:40:22.675Z,21.06
2018-02-10T08:41:22.672Z,20.99
2018-02-10T08:42:22.677Z,21.04
2018-02-10T08:43:22.912Z,21.04
2018-02-10T08:44:22.656Z,21.06
2018-02-10T08:45:22.649Z,20.92
2018-02-10T08:46:22.646Z,20.95
2018-02-10T08:47:22.640Z,21.01
2018-02-10T08:48:22.632Z,20.92
2018-02-10T08:49:22.625Z,21.01
2018-02-10T08:50:22.631Z,20.98
2018-02-10T08:51:22.609Z,20.92
2018-02-10T08:52:22.603Z,20.99
2018-02-10T08:53:22.597Z,20.98
2018-02-10T08:54:22.839Z,20.94
2018-02-10T08:55:22.630Z,20.97
2018-02-10T08:56:22.579Z,20.99
2018-02-10T08:57:22.571Z,20.95
2018-02-10T08:58:23.481Z,20.98
2018-02-10T08:59:22.564Z,21.01
2018-02-10T09:00:22.553Z,20.89
2018-02-10T09:01:22.552Z,21.04
2018-02-10T09:02:22.544Z,20.95
2018-02-10T09:03:22.548Z,20.98
2018-02-10T09:04:22.542Z,21.04
2018-02-10T09:05:22.772Z,20.94
2018-02-10T09:06:22.513Z,21.01
2018-02-10T09:07:22.511Z,20.99
2018-02-10T09:08:22.514Z,21.01
2018-02-10T09:09:22.499Z,20.95
2018-02-10T09:10:22.489Z,20.98
2018-02-10T09:11:22.485Z,21.01
2018-02-10T09:12:22.485Z,20.98
2018-02-10T09:13:22.469Z,21.01
2018-02-10T09:14:22.470Z,21.01
2018-02-10T09:15:22.463Z,20.98
2018-02-10T09:16:22.452Z,20.97
2018-02-10T09:17:22.447Z,20.99
2018-02-10T09:18:22.454Z,21.03
2018-02-10T09:19:22.437Z,20.97
2018-02-10T09:20:22.452Z,20.94
2018-02-10T09:21:22.686Z,21.09
2018-02-10T09:22:22.488Z,20.94
2018-02-10T09:23:22.414Z,21.01
2018-02-10T09:24:22.414Z,20.98
2018-02-10T09:25:22.400Z,20.99
2018-02-10T09:26:22.398Z,21.04
2018-02-10T09:27:22.384Z,20.99
2018-02-10T09:28:22.375Z,20.99
2018-02-10T09:29:22.370Z,20.99
2018-02-10T09:30:22.379Z,20.97
2018-02-10T09:31:22.376Z,21.04
2018-02-10T09:32:22.355Z,20.99
2018-02-10T09:33:22.346Z,21.06
2018-02-10T09:34:22.347Z,20.98
2018-02-10T09:35:22.336Z,21.04
2018-02-10T09:36:22.680Z,21.04
2018-02-10T09:37:22.730Z,21.01
2018-02-10T09:38:22.666Z,20.98
2018-02-10T09:39:22.308Z,21.04
2018-02-10T09:40:22.308Z,21.03
2018-02-10T09:41:22.294Z,21.10
2018-02-10T09:42:22.294Z,21.03
2018-02-10T09:43:22.290Z,20.97
2018-02-10T09:44:22.275Z,21.01
2018-02-10T09:45:22.273Z,21.04
2018-02-10T09:46:22.274Z,20.99
2018-02-10T09:47:22.513Z,20.99
2018-02-10T09:48:22.252Z,20.97
2018-02-10T09:49:22.246Z,21.01
2018-02-10T09:50:22.245Z,20.98
2018-02-10T09:51:22.322Z,20.94
2018-02-10T09:52:22.223Z,20.92
2018-02-10T09:53:22.220Z,21.06
2018-02-10T09:54:22.213Z,21.04
2018-02-10T09:55:22.320Z,21.04
2018-02-10T09:56:22.199Z,21.01
2018-02-10T09:57:22.295Z,21.01
2018-02-10T09:58:22.189Z,21.01
2018-02-10T09:59:22.187Z,20.99
2018-02-10T10:00:22.181Z,21.01
2018-02-10T10:01:22.176Z,20.98
2018-02-10T10:02:22.164Z,21.06
2018-02-10T10:03:22.206Z,20.97
2018-02-10T10:04:22.148Z,21.04
2018-02-10T10:05:22.147Z,21.01
2018-02-10T10:06:22.143Z,20.99
2018-02-10T10:07:22.141Z,21.03
2018-02-10T10:08:22.127Z,20.98
2018-02-10T10:09:22.120Z,20.99
2018-02-10T10:10:22.121Z,21.12
2018-02-10T10:11:22.109Z,20.95
2018-02-10T10:12:22.103Z,21.03
2018-02-10T10:13:22.096Z,20.99
2018-02-10T10:14:22.087Z,20.95
2018-02-10T10:15:22.081Z,21.07
2018-02-10T10:16:22.077Z,20.98
2018-02-10T10:17:22.176Z,20.95
2018-02-10T10:18:22.062Z,21.01
2018-02-10T10:19:22.066Z,21.07
2018-02-10T10:20:22.051Z,21.03
2018-02-10T10:21:22.046Z,20.98
2018-02-10T10:22:22.041Z,21.04
2018-02-10T10:23:22.035Z,21.01
2018-02-10T10:24:22.025Z,21.01
2018-02-10T10:25:22.019Z,20.95
2018-02-10T10:26:22.021Z,21.01
2018-02-10T10:27:22.006Z,21.01
2018-02-10T10:28:22.004Z,21.03
2018-02-10T10:29:22.005Z,20.95
2018-02-10T10:30:21.996Z,21.03
2018-02-10T10:31:22.579Z,21.06
2018-02-10T10:32:22.373Z,21.01
2018-02-10T10:33:22.371Z,21.06
2018-02-10T10:34:22.064Z,21.03
2018-02-10T10:35:21.957Z,21.01
2018-02-10T10:36:22.069Z,21.03
2018-02-10T10:37:21.941Z,21.04
2018-02-10T10:38:21.950Z,20.95
2018-02-10T10:39:21.930Z,20.99
2018-02-10T10:40:22.059Z,21.07
2018-02-10T10:41:21.919Z,21.06
2018-02-10T10:42:21.909Z,20.99
2018-02-10T10:43:21.911Z,21.01
2018-02-10T10:44:21.955Z,20.99
2018-02-10T10:45:21.893Z,21.01
2018-02-10T10:46:21.886Z,20.95
2018-02-10T10:47:21.889Z,21.03
2018-02-10T10:48:21.877Z,20.95
2018-02-10T10:49:21.865Z,20.99
2018-02-10T10:50:21.905Z,20.98
2018-02-10T10:51:21.855Z,21.10
2018-02-10T10:57:36.162Z,21.82
2018-02-10T10:58:36.216Z,23.68
2018-02-10T11:34:08.440Z,2.77
2018-02-10T11:35:08.408Z,2.56
2018-02-10T11:36:08.385Z,2.45
2018-02-10T11:37:08.361Z,2.34
2018-02-10T11:38:08.345Z,2.28
2018-02-10T11:39:08.317Z,2.24
2018-02-10T11:40:08.297Z,2.21
2018-02-10T11:41:08.272Z,2.23
2018-02-10T11:42:08.253Z,2.27
2018-02-10T11:43:08.233Z,2.21
2018-02-10T11:44:08.212Z,2.18
2018-02-10T11:45:08.196Z,2.27
2018-02-10T11:46:08.177Z,2.23
2018-02-10T11:47:08.153Z,2.09
2018-02-10T11:48:08.127Z,2.20
2018-02-10T11:49:08.134Z,2.21
2018-02-10T11:50:08.085Z,2.20
2018-02-10T11:51:08.065Z,2.21
2018-02-10T11:52:08.043Z,2.28
2018-02-10T11:53:08.025Z,2.34
2018-02-10T11:54:08.004Z,2.25
2018-02-10T11:55:07.986Z,2.35
2018-02-10T11:56:07.962Z,2.49
2018-02-10T11:57:07.948Z,2.43
2018-02-10T11:58:07.922Z,2.43
2018-02-10T11:59:07.901Z,2.56
2018-02-10T12:00:07.885Z,2.67
2018-02-10T12:01:07.865Z,2.67
2018-02-10T12:02:07.895Z,2.66
2018-02-10T12:03:07.821Z,2.64
2018-02-10T12:04:07.802Z,2.66
2018-02-10T12:05:07.784Z,2.71
2018-02-10T12:06:07.761Z,2.77
2018-02-10T12:07:07.742Z,2.78
2018-02-10T12:08:07.725Z,2.72
2018-02-10T12:09:07.703Z,2.82
2018-02-10T12:10:07.687Z,2.96
2018-02-10T12:11:07.665Z,2.87
2018-02-10T12:12:07.649Z,2.96
2018-02-10T12:13:07.634Z,2.81
2018-02-10T12:14:07.607Z,2.87
2018-02-10T12:15:07.588Z,2.93
2018-02-10T12:16:07.570Z,2.92
2018-02-10T12:17:07.548Z,2.87
2018-02-10T12:18:07.527Z,2.84
2018-02-10T12:19:07.522Z,2.81
2018-02-10T12:20:07.503Z,2.93
2018-02-10T12:21:07.480Z,2.97
2018-02-10T12:22:07.450Z,2.90
2018-02-10T12:23:07.431Z,2.95
2018-02-10T12:24:07.416Z,3.05
2018-02-10T12:25:07.395Z,3.05
2018-02-10T12:26:07.375Z,3.02
2018-02-10T12:27:07.356Z,3.20
2018-02-10T12:28:07.335Z,3.24
2018-02-10T12:29:07.318Z,3.35
2018-02-10T12:30:07.298Z,3.47
2018-02-10T12:31:07.277Z,3.57
2018-02-10T12:32:07.260Z,3.62
2018-02-10T12:33:07.244Z,3.62
2018-02-10T12:34:07.228Z,3.70
2018-02-10T12:35:07.251Z,3.70
2018-02-10T12:36:07.187Z,3.76
2018-02-10T12:37:07.165Z,3.72
2018-02-10T12:38:07.157Z,3.75
2018-02-10T12:39:07.134Z,3.80
2018-02-10T12:40:07.110Z,3.90
2018-02-10T12:41:07.095Z,3.90
2018-02-10T12:42:07.067Z,3.78
2018-02-10T12:43:07.056Z,3.87
2018-02-10T12:44:07.034Z,3.93
2018-02-10T12:45:07.015Z,3.76
2018-02-10T12:46:06.996Z,3.84
2018-02-10T12:47:06.979Z,3.78
2018-02-10T12:48:06.956Z,3.68
2018-02-10T12:49:06.939Z,3.73
2018-02-10T12:50:06.931Z,3.65
2018-02-10T12:51:06.901Z,3.68
2018-02-10T12:52:06.895Z,3.66
2018-02-10T12:53:06.867Z,3.69
2018-02-10T12:54:06.847Z,3.58
2018-02-10T12:55:06.830Z,3.58
2018-02-10T12:56:06.812Z,3.61
2018-02-10T12:57:06.794Z,3.62
2018-02-10T12:58:06.777Z,3.75
2018-02-10T12:59:06.771Z,3.80
2018-02-10T13:00:06.737Z,3.91
2018-02-10T13:01:06.721Z,3.90
2018-02-10T13:02:06.708Z,3.90
2018-02-10T13:03:06.682Z,3.98
2018-02-10T13:04:06.668Z,4.16
2018-02-10T13:05:06.646Z,4.41
2018-02-10T13:06:06.640Z,4.62
2018-02-10T13:07:06.607Z,4.66
2018-02-10T13:08:06.592Z,4.67
2018-02-10T13:09:06.572Z,4.84
2018-02-10T13:10:06.556Z,4.94
2018-02-10T13:11:06.537Z,4.96
2018-02-10T13:12:06.524Z,4.86
2018-02-10T13:13:06.505Z,5.03
2018-02-10T13:14:06.542Z,4.97
2018-02-10T13:15:06.467Z,5.04
2018-02-10T13:16:06.448Z,5.03
2018-02-10T13:17:06.429Z,4.89
2018-02-10T13:18:06.467Z,5.03
2018-02-10T13:19:06.396Z,5.04
2018-02-10T13:20:06.381Z,4.91
2018-02-10T13:21:06.366Z,4.72
2018-02-10T13:22:06.342Z,4.60
2018-02-10T13:23:06.357Z,4.60
2018-02-10T13:24:06.359Z,4.42
2018-02-10T13:25:06.308Z,4.33
2018-02-10T13:26:06.284Z,4.32
2018-02-10T13:27:06.257Z,4.48
2018-02-10T13:28:06.391Z,4.58
2018-02-10T13:29:06.221Z,4.59
2018-02-10T13:30:06.202Z,4.54
2018-02-10T13:31:06.191Z,4.33
2018-02-10T13:32:06.167Z,4.29
2018-02-10T13:33:06.154Z,4.37
2018-02-10T13:34:06.134Z,4.34
2018-02-10T13:35:06.119Z,4.45
2018-02-10T13:36:06.104Z,4.63